<?xml version="1.0" encoding="UTF-8" standalone="no" ?>
<gpx xmlns="http://www.topografix.com/GPX/1/1" xmlns:xsi="http://www.w3.org/2001/XMLSchema-instance" xsi:schemaLocation="http://www.topografix.com/GPX/1/1 http://www.topografix.com/GPX/1/1/gpx.xsd" version="1.1" creator="VisuGPX - https://www.visugpx.com">
  <metadata>
    <name>Raid VTT IFV 2022 de l'enfer</name>
    <desc><![CDATA[Tracé du raid avec le découpage en segments de guidage individuels avec thème d'animation imposé]]></desc>
  </metadata>
  <trk>
    <name><![CDATA[J1 - RUN 1 - Jérémy]]></name>
    <desc><![CDATA[Physio : gestion de l'effort long]]></desc>
    <extensions>
      <line xmlns="http://www.topografix.com/GPX/gpx_style/0/2">
        <color>0000FF</color>
        <width>4</width>
          <extensions>
            <sens>1</sens>
          </extensions>
      </line>
    </extensions>
    <trkseg>
      <trkpt lat="44.18139" lon="6.62771">
        <ele>1247</ele>
        <time>2021-11-16T01:58:49Z</time>
      </trkpt>
      <trkpt lat="44.18116" lon="6.62759">
        <ele>1248</ele>
        <time>2021-11-16T01:58:55Z</time>
      </trkpt>
      <trkpt lat="44.18081" lon="6.62711">
        <ele>1249</ele>
        <time>2021-11-16T01:59:06Z</time>
      </trkpt>
      <trkpt lat="44.18071" lon="6.62686">
        <ele>1249</ele>
        <time>2021-11-16T01:59:11Z</time>
      </trkpt>
      <trkpt lat="44.18057" lon="6.62611">
        <ele>1247</ele>
        <time>2021-11-16T01:59:24Z</time>
      </trkpt>
      <trkpt lat="44.18052" lon="6.62598">
        <ele>1246</ele>
        <time>2021-11-16T01:59:26Z</time>
      </trkpt>
      <trkpt lat="44.18037" lon="6.62584">
        <ele>1245</ele>
        <time>2021-11-16T01:59:31Z</time>
      </trkpt>
      <trkpt lat="44.18007" lon="6.62577">
        <ele>1243</ele>
        <time>2021-11-16T01:59:38Z</time>
      </trkpt>
      <trkpt lat="44.17981" lon="6.62565">
        <ele>1242</ele>
        <time>2021-11-16T01:59:44Z</time>
      </trkpt>
      <trkpt lat="44.17966" lon="6.62553">
        <ele>1242</ele>
        <time>2021-11-16T01:59:48Z</time>
      </trkpt>
      <trkpt lat="44.1796" lon="6.62539">
        <ele>1241</ele>
        <time>2021-11-16T01:59:51Z</time>
      </trkpt>
      <trkpt lat="44.1795" lon="6.62564">
        <ele>1241</ele>
        <time>2021-11-16T01:59:56Z</time>
      </trkpt>
      <trkpt lat="44.17931" lon="6.62568">
        <ele>1240</ele>
        <time>2021-11-16T02:00:00Z</time>
      </trkpt>
      <trkpt lat="44.17899" lon="6.62579">
        <ele>1246</ele>
        <time>2021-11-16T02:00:08Z</time>
      </trkpt>
      <trkpt lat="44.17888" lon="6.62562">
        <ele>1248</ele>
        <time>2021-11-16T02:00:12Z</time>
      </trkpt>
      <trkpt lat="44.17865" lon="6.62464">
        <ele>1246</ele>
        <time>2021-11-16T02:00:29Z</time>
      </trkpt>
      <trkpt lat="44.17847" lon="6.62365">
        <ele>1238</ele>
        <time>2021-11-16T02:00:46Z</time>
      </trkpt>
      <trkpt lat="44.17808" lon="6.62294">
        <ele>1240</ele>
        <time>2021-11-16T02:01:01Z</time>
      </trkpt>
      <trkpt lat="44.1779" lon="6.62232">
        <ele>1239</ele>
        <time>2021-11-16T02:01:12Z</time>
      </trkpt>
      <trkpt lat="44.17789" lon="6.62195">
        <ele>1238</ele>
        <time>2021-11-16T02:01:19Z</time>
      </trkpt>
      <trkpt lat="44.17786" lon="6.62181">
        <ele>1238</ele>
        <time>2021-11-16T02:01:21Z</time>
      </trkpt>
      <trkpt lat="44.17778" lon="6.62173">
        <ele>1239</ele>
        <time>2021-11-16T02:01:23Z</time>
      </trkpt>
      <trkpt lat="44.17763" lon="6.62171">
        <ele>1241</ele>
        <time>2021-11-16T02:01:27Z</time>
      </trkpt>
      <trkpt lat="44.17737" lon="6.62159">
        <ele>1244</ele>
        <time>2021-11-16T02:01:33Z</time>
      </trkpt>
      <trkpt lat="44.17723" lon="6.62157">
        <ele>1246</ele>
        <time>2021-11-16T02:01:36Z</time>
      </trkpt>
      <trkpt lat="44.17722" lon="6.62154">
        <ele>1246</ele>
        <time>2021-11-16T02:01:37Z</time>
      </trkpt>
      <trkpt lat="44.17702" lon="6.62153">
        <ele>1248</ele>
        <time>2021-11-16T02:01:42Z</time>
      </trkpt>
      <trkpt lat="44.1769" lon="6.62149">
        <ele>1250</ele>
        <time>2021-11-16T02:01:45Z</time>
      </trkpt>
      <trkpt lat="44.17681" lon="6.62142">
        <ele>1250</ele>
        <time>2021-11-16T02:01:47Z</time>
      </trkpt>
      <trkpt lat="44.17667" lon="6.62123">
        <ele>1250</ele>
        <time>2021-11-16T02:01:52Z</time>
      </trkpt>
      <trkpt lat="44.17655" lon="6.62099">
        <ele>1248</ele>
        <time>2021-11-16T02:01:56Z</time>
      </trkpt>
      <trkpt lat="44.17633" lon="6.62069">
        <ele>1246</ele>
        <time>2021-11-16T02:02:04Z</time>
      </trkpt>
      <trkpt lat="44.17625" lon="6.62051">
        <ele>1245</ele>
        <time>2021-11-16T02:02:07Z</time>
      </trkpt>
      <trkpt lat="44.17597" lon="6.62029">
        <ele>1243</ele>
        <time>2021-11-16T02:02:15Z</time>
      </trkpt>
      <trkpt lat="44.17591" lon="6.62029">
        <ele>1243</ele>
        <time>2021-11-16T02:02:16Z</time>
      </trkpt>
      <trkpt lat="44.17584" lon="6.62039">
        <ele>1244</ele>
        <time>2021-11-16T02:02:18Z</time>
      </trkpt>
      <trkpt lat="44.17566" lon="6.62045">
        <ele>1242</ele>
        <time>2021-11-16T02:02:23Z</time>
      </trkpt>
      <trkpt lat="44.17555" lon="6.6203">
        <ele>1240</ele>
        <time>2021-11-16T02:02:26Z</time>
      </trkpt>
      <trkpt lat="44.17541" lon="6.62004">
        <ele>1237</ele>
        <time>2021-11-16T02:02:32Z</time>
      </trkpt>
      <trkpt lat="44.17544" lon="6.62007">
        <ele>1237</ele>
        <time>2021-11-16T02:02:33Z</time>
      </trkpt>
      <trkpt lat="44.17506" lon="6.6195">
        <ele>1228</ele>
        <time>2021-11-16T02:02:46Z</time>
      </trkpt>
      <trkpt lat="44.17491" lon="6.6191">
        <ele>1225</ele>
        <time>2021-11-16T02:02:53Z</time>
      </trkpt>
      <trkpt lat="44.17489" lon="6.61867">
        <ele>1223</ele>
        <time>2021-11-16T02:03:00Z</time>
      </trkpt>
      <trkpt lat="44.17483" lon="6.61853">
        <ele>1222</ele>
        <time>2021-11-16T02:03:03Z</time>
      </trkpt>
      <trkpt lat="44.17473" lon="6.61839">
        <ele>1221</ele>
        <time>2021-11-16T02:03:07Z</time>
      </trkpt>
      <trkpt lat="44.17447" lon="6.61822">
        <ele>1220</ele>
        <time>2021-11-16T02:03:13Z</time>
      </trkpt>
      <trkpt lat="44.1742" lon="6.6181">
        <ele>1219</ele>
        <time>2021-11-16T02:03:20Z</time>
      </trkpt>
      <trkpt lat="44.174" lon="6.61804">
        <ele>1219</ele>
        <time>2021-11-16T02:03:25Z</time>
      </trkpt>
      <trkpt lat="44.17347" lon="6.61808">
        <ele>1218</ele>
        <time>2021-11-16T02:03:37Z</time>
      </trkpt>
      <trkpt lat="44.17296" lon="6.6182">
        <ele>1221</ele>
        <time>2021-11-16T02:03:49Z</time>
      </trkpt>
      <trkpt lat="44.17269" lon="6.61812">
        <ele>1221</ele>
        <time>2021-11-16T02:03:56Z</time>
      </trkpt>
      <trkpt lat="44.17227" lon="6.61786">
        <ele>1220</ele>
        <time>2021-11-16T02:04:06Z</time>
      </trkpt>
      <trkpt lat="44.17205" lon="6.61778">
        <ele>1220</ele>
        <time>2021-11-16T02:04:12Z</time>
      </trkpt>
      <trkpt lat="44.17137" lon="6.61784">
        <ele>1223</ele>
        <time>2021-11-16T02:04:27Z</time>
      </trkpt>
      <trkpt lat="44.1712" lon="6.61794">
        <ele>1226</ele>
        <time>2021-11-16T02:04:32Z</time>
      </trkpt>
      <trkpt lat="44.17087" lon="6.61819">
        <ele>1233</ele>
        <time>2021-11-16T02:04:41Z</time>
      </trkpt>
      <trkpt lat="44.17073" lon="6.61817">
        <ele>1234</ele>
        <time>2021-11-16T02:04:44Z</time>
      </trkpt>
      <trkpt lat="44.17047" lon="6.61808">
        <ele>1237</ele>
        <time>2021-11-16T02:04:50Z</time>
      </trkpt>
      <trkpt lat="44.17" lon="6.6178">
        <ele>1238</ele>
        <time>2021-11-16T02:05:02Z</time>
      </trkpt>
      <trkpt lat="44.1698" lon="6.61772">
        <ele>1238</ele>
        <time>2021-11-16T02:05:07Z</time>
      </trkpt>
      <trkpt lat="44.16958" lon="6.61771">
        <ele>1240</ele>
        <time>2021-11-16T02:05:12Z</time>
      </trkpt>
      <trkpt lat="44.16933" lon="6.61774">
        <ele>1244</ele>
        <time>2021-11-16T02:05:18Z</time>
      </trkpt>
      <trkpt lat="44.16916" lon="6.61781">
        <ele>1248</ele>
        <time>2021-11-16T02:05:22Z</time>
      </trkpt>
      <trkpt lat="44.16898" lon="6.61784">
        <ele>1253</ele>
        <time>2021-11-16T02:05:26Z</time>
      </trkpt>
      <trkpt lat="44.16879" lon="6.6178">
        <ele>1255</ele>
        <time>2021-11-16T02:05:31Z</time>
      </trkpt>
      <trkpt lat="44.16824" lon="6.61754">
        <ele>1253</ele>
        <time>2021-11-16T02:05:44Z</time>
      </trkpt>
      <trkpt lat="44.16811" lon="6.61743">
        <ele>1251</ele>
        <time>2021-11-16T02:05:48Z</time>
      </trkpt>
      <trkpt lat="44.16797" lon="6.61741">
        <ele>1251</ele>
        <time>2021-11-16T02:05:51Z</time>
      </trkpt>
      <trkpt lat="44.16767" lon="6.61748">
        <ele>1256</ele>
        <time>2021-11-16T02:05:58Z</time>
      </trkpt>
      <trkpt lat="44.16753" lon="6.61749">
        <ele>1257</ele>
        <time>2021-11-16T02:06:02Z</time>
      </trkpt>
      <trkpt lat="44.16729" lon="6.61766">
        <ele>1266</ele>
        <time>2021-11-16T02:06:08Z</time>
      </trkpt>
      <trkpt lat="44.16718" lon="6.61768">
        <ele>1268</ele>
        <time>2021-11-16T02:06:10Z</time>
      </trkpt>
      <trkpt lat="44.16693" lon="6.61759">
        <ele>1267</ele>
        <time>2021-11-16T02:06:16Z</time>
      </trkpt>
      <trkpt lat="44.16673" lon="6.61741">
        <ele>1263</ele>
        <time>2021-11-16T02:06:22Z</time>
      </trkpt>
      <trkpt lat="44.16663" lon="6.61737">
        <ele>1263</ele>
        <time>2021-11-16T02:06:24Z</time>
      </trkpt>
      <trkpt lat="44.16625" lon="6.6174">
        <ele>1269</ele>
        <time>2021-11-16T02:06:33Z</time>
      </trkpt>
      <trkpt lat="44.16612" lon="6.61744">
        <ele>1272</ele>
        <time>2021-11-16T02:06:36Z</time>
      </trkpt>
      <trkpt lat="44.16575" lon="6.61776">
        <ele>1287</ele>
        <time>2021-11-16T02:06:47Z</time>
      </trkpt>
      <trkpt lat="44.16568" lon="6.61777">
        <ele>1289</ele>
        <time>2021-11-16T02:06:48Z</time>
      </trkpt>
      <trkpt lat="44.16558" lon="6.61768">
        <ele>1288</ele>
        <time>2021-11-16T02:06:51Z</time>
      </trkpt>
      <trkpt lat="44.16513" lon="6.61739">
        <ele>1287</ele>
        <time>2021-11-16T02:07:03Z</time>
      </trkpt>
      <trkpt lat="44.16492" lon="6.61733">
        <ele>1290</ele>
        <time>2021-11-16T02:07:08Z</time>
      </trkpt>
      <trkpt lat="44.16474" lon="6.6172">
        <ele>1292</ele>
        <time>2021-11-16T02:07:12Z</time>
      </trkpt>
      <trkpt lat="44.16463" lon="6.61715">
        <ele>1294</ele>
        <time>2021-11-16T02:07:15Z</time>
      </trkpt>
      <trkpt lat="44.16424" lon="6.61708">
        <ele>1302</ele>
        <time>2021-11-16T02:07:24Z</time>
      </trkpt>
      <trkpt lat="44.16382" lon="6.61681">
        <ele>1304</ele>
        <time>2021-11-16T02:07:35Z</time>
      </trkpt>
      <trkpt lat="44.16343" lon="6.61668">
        <ele>1307</ele>
        <time>2021-11-16T02:07:44Z</time>
      </trkpt>
      <trkpt lat="44.16308" lon="6.61642">
        <ele>1309</ele>
        <time>2021-11-16T02:07:54Z</time>
      </trkpt>
      <trkpt lat="44.16285" lon="6.61633">
        <ele>1312</ele>
        <time>2021-11-16T02:07:59Z</time>
      </trkpt>
      <trkpt lat="44.16263" lon="6.61616">
        <ele>1312</ele>
        <time>2021-11-16T02:08:05Z</time>
      </trkpt>
      <trkpt lat="44.16234" lon="6.61616">
        <ele>1319</ele>
        <time>2021-11-16T02:08:12Z</time>
      </trkpt>
      <trkpt lat="44.16218" lon="6.61606">
        <ele>1321</ele>
        <time>2021-11-16T02:08:16Z</time>
      </trkpt>
      <trkpt lat="44.16215" lon="6.61597">
        <ele>1320</ele>
        <time>2021-11-16T02:08:18Z</time>
      </trkpt>
      <trkpt lat="44.16213" lon="6.61568">
        <ele>1314</ele>
        <time>2021-11-16T02:08:23Z</time>
      </trkpt>
      <trkpt lat="44.16201" lon="6.61524">
        <ele>1307</ele>
        <time>2021-11-16T02:08:30Z</time>
      </trkpt>
      <trkpt lat="44.16186" lon="6.61503">
        <ele>1308</ele>
        <time>2021-11-16T02:08:35Z</time>
      </trkpt>
      <trkpt lat="44.16166" lon="6.61491">
        <ele>1312</ele>
        <time>2021-11-16T02:08:40Z</time>
      </trkpt>
      <trkpt lat="44.16124" lon="6.61472">
        <ele>1313</ele>
        <time>2021-11-16T02:08:51Z</time>
      </trkpt>
      <trkpt lat="44.16088" lon="6.61447">
        <ele>1315</ele>
        <time>2021-11-16T02:09:00Z</time>
      </trkpt>
      <trkpt lat="44.16065" lon="6.61443">
        <ele>1317</ele>
        <time>2021-11-16T02:09:06Z</time>
      </trkpt>
      <trkpt lat="44.16035" lon="6.61454">
        <ele>1321</ele>
        <time>2021-11-16T02:09:13Z</time>
      </trkpt>
      <trkpt lat="44.16012" lon="6.61459">
        <ele>1324</ele>
        <time>2021-11-16T02:09:18Z</time>
      </trkpt>
      <trkpt lat="44.15999" lon="6.61452">
        <ele>1324</ele>
        <time>2021-11-16T02:09:22Z</time>
      </trkpt>
      <trkpt lat="44.1598" lon="6.61404">
        <ele>1322</ele>
        <time>2021-11-16T02:09:31Z</time>
      </trkpt>
      <trkpt lat="44.15956" lon="6.61364">
        <ele>1322</ele>
        <time>2021-11-16T02:09:39Z</time>
      </trkpt>
      <trkpt lat="44.15944" lon="6.61338">
        <ele>1321</ele>
        <time>2021-11-16T02:09:45Z</time>
      </trkpt>
      <trkpt lat="44.15919" lon="6.61257">
        <ele>1310</ele>
        <time>2021-11-16T02:09:59Z</time>
      </trkpt>
      <trkpt lat="44.15902" lon="6.61234">
        <ele>1307</ele>
        <time>2021-11-16T02:10:05Z</time>
      </trkpt>
      <trkpt lat="44.15868" lon="6.61226">
        <ele>1310</ele>
        <time>2021-11-16T02:10:13Z</time>
      </trkpt>
      <trkpt lat="44.1583" lon="6.612">
        <ele>1309</ele>
        <time>2021-11-16T02:10:23Z</time>
      </trkpt>
      <trkpt lat="44.1582" lon="6.61184">
        <ele>1307</ele>
        <time>2021-11-16T02:10:26Z</time>
      </trkpt>
      <trkpt lat="44.158" lon="6.61171">
        <ele>1308</ele>
        <time>2021-11-16T02:10:32Z</time>
      </trkpt>
      <trkpt lat="44.1579" lon="6.61149">
        <ele>1306</ele>
        <time>2021-11-16T02:10:36Z</time>
      </trkpt>
      <trkpt lat="44.15783" lon="6.61111">
        <ele>1299</ele>
        <time>2021-11-16T02:10:42Z</time>
      </trkpt>
      <trkpt lat="44.1579" lon="6.61101">
        <ele>1296</ele>
        <time>2021-11-16T02:10:45Z</time>
      </trkpt>
      <trkpt lat="44.15793" lon="6.61084">
        <ele>1292</ele>
        <time>2021-11-16T02:10:48Z</time>
      </trkpt>
      <trkpt lat="44.15792" lon="6.61066">
        <ele>1288</ele>
        <time>2021-11-16T02:10:51Z</time>
      </trkpt>
      <trkpt lat="44.15787" lon="6.61048">
        <ele>1284</ele>
        <time>2021-11-16T02:10:54Z</time>
      </trkpt>
      <trkpt lat="44.15769" lon="6.61015">
        <ele>1279</ele>
        <time>2021-11-16T02:11:01Z</time>
      </trkpt>
      <trkpt lat="44.15753" lon="6.61">
        <ele>1278</ele>
        <time>2021-11-16T02:11:05Z</time>
      </trkpt>
      <trkpt lat="44.15745" lon="6.60998">
        <ele>1279</ele>
        <time>2021-11-16T02:11:07Z</time>
      </trkpt>
      <trkpt lat="44.15712" lon="6.60974">
        <ele>1281</ele>
        <time>2021-11-16T02:11:16Z</time>
      </trkpt>
      <trkpt lat="44.15699" lon="6.60957">
        <ele>1280</ele>
        <time>2021-11-16T02:11:20Z</time>
      </trkpt>
      <trkpt lat="44.15695" lon="6.60934">
        <ele>1277</ele>
        <time>2021-11-16T02:11:24Z</time>
      </trkpt>
      <trkpt lat="44.1568" lon="6.60897">
        <ele>1274</ele>
        <time>2021-11-16T02:11:31Z</time>
      </trkpt>
      <trkpt lat="44.1567" lon="6.60891">
        <ele>1276</ele>
        <time>2021-11-16T02:11:34Z</time>
      </trkpt>
      <trkpt lat="44.15665" lon="6.60883">
        <ele>1276</ele>
        <time>2021-11-16T02:11:36Z</time>
      </trkpt>
      <trkpt lat="44.15674" lon="6.60821">
        <ele>1264</ele>
        <time>2021-11-16T02:11:46Z</time>
      </trkpt>
      <trkpt lat="44.15656" lon="6.60802">
        <ele>1265</ele>
        <time>2021-11-16T02:11:52Z</time>
      </trkpt>
      <trkpt lat="44.15644" lon="6.60764">
        <ele>1261</ele>
        <time>2021-11-16T02:11:58Z</time>
      </trkpt>
      <trkpt lat="44.15633" lon="6.60739">
        <ele>1258</ele>
        <time>2021-11-16T02:12:03Z</time>
      </trkpt>
      <trkpt lat="44.15626" lon="6.6073">
        <ele>1258</ele>
        <time>2021-11-16T02:12:06Z</time>
      </trkpt>
      <trkpt lat="44.15613" lon="6.60695">
        <ele>1254</ele>
        <time>2021-11-16T02:12:12Z</time>
      </trkpt>
      <trkpt lat="44.15579" lon="6.60655">
        <ele>1249</ele>
        <time>2021-11-16T02:12:23Z</time>
      </trkpt>
      <trkpt lat="44.15543" lon="6.60629">
        <ele>1242</ele>
        <time>2021-11-16T02:12:32Z</time>
      </trkpt>
      <trkpt lat="44.15511" lon="6.60617">
        <ele>1240</ele>
        <time>2021-11-16T02:12:40Z</time>
      </trkpt>
      <trkpt lat="44.15488" lon="6.60594">
        <ele>1235</ele>
        <time>2021-11-16T02:12:46Z</time>
      </trkpt>
      <trkpt lat="44.15454" lon="6.60523">
        <ele>1225</ele>
        <time>2021-11-16T02:13:01Z</time>
      </trkpt>
      <trkpt lat="44.15431" lon="6.60485">
        <ele>1223</ele>
        <time>2021-11-16T02:13:09Z</time>
      </trkpt>
      <trkpt lat="44.15429" lon="6.60466">
        <ele>1219</ele>
        <time>2021-11-16T02:13:12Z</time>
      </trkpt>
      <trkpt lat="44.15423" lon="6.60449">
        <ele>1217</ele>
        <time>2021-11-16T02:13:15Z</time>
      </trkpt>
      <trkpt lat="44.15409" lon="6.60434">
        <ele>1217</ele>
        <time>2021-11-16T02:13:20Z</time>
      </trkpt>
      <trkpt lat="44.15387" lon="6.60417">
        <ele>1217</ele>
        <time>2021-11-16T02:13:25Z</time>
      </trkpt>
      <trkpt lat="44.15371" lon="6.60408">
        <ele>1217</ele>
        <time>2021-11-16T02:13:29Z</time>
      </trkpt>
      <trkpt lat="44.15348" lon="6.604">
        <ele>1220</ele>
        <time>2021-11-16T02:13:35Z</time>
      </trkpt>
      <trkpt lat="44.15302" lon="6.60362">
        <ele>1220</ele>
        <time>2021-11-16T02:13:47Z</time>
      </trkpt>
      <trkpt lat="44.15263" lon="6.60336">
        <ele>1219</ele>
        <time>2021-11-16T02:13:58Z</time>
      </trkpt>
      <trkpt lat="44.15239" lon="6.60323">
        <ele>1219</ele>
        <time>2021-11-16T02:14:04Z</time>
      </trkpt>
      <trkpt lat="44.15186" lon="6.60265">
        <ele>1211</ele>
        <time>2021-11-16T02:14:19Z</time>
      </trkpt>
      <trkpt lat="44.1518" lon="6.60251">
        <ele>1208</ele>
        <time>2021-11-16T02:14:22Z</time>
      </trkpt>
      <trkpt lat="44.15158" lon="6.60225">
        <ele>1202</ele>
        <time>2021-11-16T02:14:29Z</time>
      </trkpt>
      <trkpt lat="44.15127" lon="6.60201">
        <ele>1199</ele>
        <time>2021-11-16T02:14:37Z</time>
      </trkpt>
      <trkpt lat="44.1508" lon="6.60189">
        <ele>1203</ele>
        <time>2021-11-16T02:14:48Z</time>
      </trkpt>
      <trkpt lat="44.15045" lon="6.60199">
        <ele>1208</ele>
        <time>2021-11-16T02:14:57Z</time>
      </trkpt>
      <trkpt lat="44.15024" lon="6.60211">
        <ele>1212</ele>
        <time>2021-11-16T02:15:02Z</time>
      </trkpt>
      <trkpt lat="44.14994" lon="6.60199">
        <ele>1210</ele>
        <time>2021-11-16T02:15:09Z</time>
      </trkpt>
      <trkpt lat="44.14969" lon="6.60203">
        <ele>1215</ele>
        <time>2021-11-16T02:15:15Z</time>
      </trkpt>
      <trkpt lat="44.14948" lon="6.602">
        <ele>1218</ele>
        <time>2021-11-16T02:15:20Z</time>
      </trkpt>
      <trkpt lat="44.14922" lon="6.60191">
        <ele>1219</ele>
        <time>2021-11-16T02:15:26Z</time>
      </trkpt>
      <trkpt lat="44.14904" lon="6.60178">
        <ele>1219</ele>
        <time>2021-11-16T02:15:31Z</time>
      </trkpt>
      <trkpt lat="44.14894" lon="6.6016">
        <ele>1217</ele>
        <time>2021-11-16T02:15:35Z</time>
      </trkpt>
      <trkpt lat="44.14896" lon="6.60147">
        <ele>1214</ele>
        <time>2021-11-16T02:15:37Z</time>
      </trkpt>
      <trkpt lat="44.14893" lon="6.60128">
        <ele>1210</ele>
        <time>2021-11-16T02:15:40Z</time>
      </trkpt>
      <trkpt lat="44.14856" lon="6.6009">
        <ele>1211</ele>
        <time>2021-11-16T02:15:51Z</time>
      </trkpt>
      <trkpt lat="44.14832" lon="6.60061">
        <ele>1207</ele>
        <time>2021-11-16T02:15:58Z</time>
      </trkpt>
      <trkpt lat="44.14779" lon="6.60035">
        <ele>1208</ele>
        <time>2021-11-16T02:16:12Z</time>
      </trkpt>
      <trkpt lat="44.14736" lon="6.59995">
        <ele>1204</ele>
        <time>2021-11-16T02:16:24Z</time>
      </trkpt>
      <trkpt lat="44.147" lon="6.59972">
        <ele>1203</ele>
        <time>2021-11-16T02:16:33Z</time>
      </trkpt>
      <trkpt lat="44.1469" lon="6.59963">
        <ele>1201</ele>
        <time>2021-11-16T02:16:36Z</time>
      </trkpt>
      <trkpt lat="44.14593" lon="6.59905">
        <ele>1195</ele>
        <time>2021-11-16T02:17:00Z</time>
      </trkpt>
      <trkpt lat="44.14483" lon="6.59832">
        <ele>1189</ele>
        <time>2021-11-16T02:17:29Z</time>
      </trkpt>
      <trkpt lat="44.14449" lon="6.59813">
        <ele>1190</ele>
        <time>2021-11-16T02:17:37Z</time>
      </trkpt>
      <trkpt lat="44.14371" lon="6.59741">
        <ele>1180</ele>
        <time>2021-11-16T02:17:59Z</time>
      </trkpt>
      <trkpt lat="44.14344" lon="6.59709">
        <ele>1174</ele>
        <time>2021-11-16T02:18:07Z</time>
      </trkpt>
      <trkpt lat="44.14319" lon="6.59689">
        <ele>1170</ele>
        <time>2021-11-16T02:18:14Z</time>
      </trkpt>
      <trkpt lat="44.14302" lon="6.59682">
        <ele>1169</ele>
        <time>2021-11-16T02:18:18Z</time>
      </trkpt>
      <trkpt lat="44.14291" lon="6.59637">
        <ele>1162</ele>
        <time>2021-11-16T02:18:26Z</time>
      </trkpt>
      <trkpt lat="44.1426" lon="6.59608">
        <ele>1158</ele>
        <time>2021-11-16T02:18:35Z</time>
      </trkpt>
    </trkseg>
  </trk>
</gpx>